createdAt,value
2022-10-14T00:00:14.663Z,577.6
2022-10-14T00:01:16.955Z,577.8
2022-10-14T00:02:19.755Z,577.9
2022-10-14T00:03:22.021Z,578.2
2022-10-14T00:04:24.213Z,578.4
2022-10-14T00:05:26.130Z,578.6
2022-10-14T00:06:28.346Z,578.8
2022-10-14T00:07:30.549Z,578.6
2022-10-14T00:08:32.482Z,578.6
2022-10-14T00:09:34.946Z,578.2
2022-10-14T00:10:37.416Z,578.5
2022-10-14T00:11:39.350Z,578.8
2022-10-14T00:12:41.845Z,578.7
2022-10-14T00:13:44.319Z,578.3
2022-10-14T00:14:46.792Z,578.4
2022-10-14T00:15:48.700Z,578.5
2022-10-14T00:16:50.976Z,579
2022-10-14T00:17:53.453Z,578.2
2022-10-14T00:18:55.924Z,578
2022-10-14T00:19:58.390Z,578.1
2022-10-14T00:21:00.859Z,578.1
2022-10-14T00:22:02.500Z,578.1
2022-10-14T00:23:04.715Z,577.7
2022-10-14T00:24:06.925Z,578.5
2022-10-14T00:25:09.408Z,577.9
2022-10-14T00:26:11.330Z,577.7
2022-10-14T00:27:13.800Z,578
2022-10-14T00:28:16.308Z,577.9
2022-10-14T00:29:18.881Z,577.7
2022-10-14T00:30:21.172Z,577.7
2022-10-14T00:31:23.673Z,578
2022-10-14T00:32:26.225Z,577.3
2022-10-14T00:33:28.698Z,577.6
2022-10-14T00:34:32.643Z,577.9
2022-10-14T00:35:34.815Z,577.7
2022-10-14T00:36:37.007Z,577.8
2022-10-14T00:37:39.486Z,578
2022-10-14T00:38:41.966Z,578.2
2022-10-14T00:39:44.436Z,577.9
2022-10-14T00:40:46.910Z,578
2022-10-14T00:41:48.817Z,578
2022-10-14T00:42:50.996Z,577.9
2022-10-14T00:43:53.478Z,578.1
2022-10-14T00:44:55.950Z,577.9
2022-10-14T00:45:58.427Z,578
2022-10-14T00:47:00.335Z,578
2022-10-14T00:48:02.894Z,578.4
2022-10-14T00:49:05.084Z,578
2022-10-14T00:50:07.179Z,577.9
2022-10-14T00:51:09.718Z,577.9
2022-10-14T00:52:12.184Z,578.1
2022-10-14T00:53:14.380Z,578.2
2022-10-14T00:54:16.582Z,578.1
2022-10-14T00:55:19.058Z,578.3
2022-10-14T00:56:21.518Z,578.2
2022-10-14T00:57:25.286Z,578.2
2022-10-14T00:58:27.750Z,578.5
2022-10-14T00:59:29.946Z,578.4
2022-10-14T01:00:32.781Z,578.2
2022-10-14T01:01:34.982Z,578.2
2022-10-14T01:02:37.482Z,578
2022-10-14T01:03:40.032Z,578.5
2022-10-14T01:04:42.661Z,578.5
2022-10-14T01:05:45.131Z,578.3
2022-10-14T01:06:47.602Z,578.2
2022-10-14T01:07:49.797Z,578.6
2022-10-14T01:08:52.262Z,578
2022-10-14T01:09:54.752Z,578.2
2022-10-14T01:10:57.211Z,578.5
2022-10-14T01:13:04.672Z,578.2
2022-10-14T01:14:07.143Z,578.2
2022-10-14T01:15:09.764Z,578.1
2022-10-14T01:16:11.396Z,578.2
2022-10-14T01:17:13.599Z,578.2
2022-10-14T01:18:16.077Z,578.2
2022-10-14T01:19:18.343Z,578.1
2022-10-14T01:20:20.531Z,578.2
2022-10-14T01:21:22.731Z,578.2
2022-10-14T01:22:27.809Z,578.6
2022-10-14T01:23:30.442Z,578.1
2022-10-14T01:24:32.364Z,578.1
2022-10-14T01:25:35.205Z,578.2
2022-10-14T01:26:37.409Z,578
2022-10-14T01:27:39.606Z,578.1
2022-10-14T01:28:42.506Z,578
2022-10-14T01:29:44.456Z,578.3
2022-10-14T01:30:46.371Z,578.3
2022-10-14T01:31:48.276Z,578.5
2022-10-14T01:32:50.478Z,578.2
2022-10-14T01:33:52.668Z,579.1
2022-10-14T01:34:55.208Z,578.4
2022-10-14T01:35:57.676Z,578.4
2022-10-14T01:37:00.146Z,578.2
2022-10-14T01:38:02.077Z,578.7
2022-10-14T01:39:04.550Z,578.6
2022-10-14T01:40:06.471Z,578.3
2022-10-14T01:41:08.932Z,578.3
2022-10-14T01:42:11.399Z,578.2
2022-10-14T01:43:13.870Z,578.4
2022-10-14T01:44:16.340Z,578
2022-10-14T01:45:18.810Z,577.9
2022-10-14T01:46:21.022Z,578
2022-10-14T01:47:23.217Z,577.8
2022-10-14T01:48:25.691Z,578.2
2022-10-14T01:49:27.888Z,577.9
2022-10-14T01:50:30.441Z,578
2022-10-14T01:51:32.906Z,577.7
2022-10-14T01:52:35.382Z,577.9
2022-10-14T01:53:37.562Z,578.3
2022-10-14T01:54:39.772Z,578
2022-10-14T01:55:42.236Z,578.1
2022-10-14T01:56:44.705Z,578.2
2022-10-14T01:57:47.175Z,578.4
2022-10-14T01:58:49.372Z,578.5
2022-10-14T01:59:51.564Z,578.6
2022-10-14T02:00:54.051Z,579.2
2022-10-14T02:01:56.818Z,579.5
2022-10-14T02:02:59.319Z,579.3
2022-10-14T02:04:01.785Z,579.3
2022-10-14T02:05:03.984Z,578.8
2022-10-14T02:06:06.568Z,578.8
2022-10-14T02:07:09.030Z,578.8
2022-10-14T02:08:11.227Z,578.2
2022-10-14T02:09:13.694Z,578.9
2022-10-14T02:10:15.875Z,578.4
2022-10-14T02:11:18.353Z,578.5
2022-10-14T02:12:22.559Z,578.4
2022-10-14T02:13:25.234Z,578.2
2022-10-14T02:14:27.158Z,578.7
2022-10-14T02:15:29.369Z,578.2
2022-10-14T02:16:31.841Z,578.3
2022-10-14T02:17:34.045Z,578
2022-10-14T02:18:36.517Z,577.7
2022-10-14T02:19:38.443Z,578
2022-10-14T02:20:40.665Z,577.9
2022-10-14T02:21:42.944Z,577.9
2022-10-14T02:22:45.405Z,577.9
2022-10-14T02:23:47.880Z,577.9
2022-10-14T02:24:50.342Z,578.4
2022-10-14T02:25:52.536Z,578.8
2022-10-14T02:26:54.735Z,578.7
2022-10-14T02:27:56.910Z,578.7
2022-10-14T02:28:59.348Z,578.1
2022-10-14T02:30:01.863Z,578.5
2022-10-14T02:31:04.043Z,578.3
2022-10-14T02:32:06.246Z,578.6
2022-10-14T02:33:08.186Z,578.2
2022-10-14T02:34:10.380Z,578.2
2022-10-14T02:35:12.576Z,578.4
2022-10-14T02:36:14.765Z,578
2022-10-14T02:37:17.026Z,577.8
2022-10-14T02:38:18.678Z,578
2022-10-14T02:39:21.149Z,577.9
2022-10-14T02:40:23.612Z,577.7
2022-10-14T02:41:26.086Z,577.4
2022-10-14T02:42:27.722Z,577.5
2022-10-14T02:43:29.956Z,577.3
2022-10-14T02:44:32.433Z,577.3
2022-10-14T02:45:34.631Z,577.4
2022-10-14T02:46:36.835Z,577.2
2022-10-14T02:47:39.311Z,577.3
2022-10-14T02:48:41.232Z,577.4
2022-10-14T02:49:43.717Z,577.8
2022-10-14T02:50:46.189Z,577.9
2022-10-14T02:51:48.387Z,577.7
2022-10-14T02:52:50.943Z,577.9
2022-10-14T02:53:53.142Z,577.8
2022-10-14T02:54:55.608Z,578.3
2022-10-14T02:55:57.815Z,577.8
2022-10-14T02:57:00.357Z,578
2022-10-14T02:58:02.257Z,578.4
2022-10-14T02:59:04.458Z,578.4
2022-10-14T03:00:06.653Z,578.4
2022-10-14T03:01:09.125Z,577.5
2022-10-14T03:02:11.703Z,578
2022-10-14T03:03:13.657Z,577.5
2022-10-14T03:04:15.866Z,577.7
2022-10-14T03:05:18.070Z,577.2
2022-10-14T03:06:20.261Z,577.6
2022-10-14T03:07:22.482Z,577.8
2022-10-14T03:08:25.038Z,578
2022-10-14T03:09:27.231Z,577.8
2022-10-14T03:10:29.131Z,577.7
2022-10-14T03:11:31.341Z,578.1
2022-10-14T03:12:33.853Z,578
2022-10-14T03:13:36.323Z,577.9
2022-10-14T03:14:38.520Z,577.8
2022-10-14T03:15:40.996Z,578.4
2022-10-14T03:16:43.464Z,578.1
2022-10-14T03:17:45.727Z,578.1
2022-10-14T03:18:47.999Z,577.9
2022-10-14T03:19:50.259Z,578.1
2022-10-14T03:20:51.917Z,578.1
2022-10-14T03:21:54.395Z,578.3
2022-10-14T03:22:56.875Z,578.4
2022-10-14T03:23:59.126Z,578.6
2022-10-14T03:25:01.627Z,578.9
2022-10-14T03:26:03.826Z,578.6
2022-10-14T03:27:05.754Z,578.9
2022-10-14T03:28:07.967Z,578.6
2022-10-14T03:29:10.442Z,578.9
2022-10-14T03:30:13.028Z,578.8
2022-10-14T03:31:15.526Z,578.9
2022-10-14T03:32:17.446Z,578.9
2022-10-14T03:34:24.631Z,579.2
2022-10-14T03:35:27.118Z,579
2022-10-14T03:36:29.601Z,579.1
2022-10-14T03:37:31.797Z,578.6
2022-10-14T03:38:34.274Z,579.1
2022-10-14T03:39:37.486Z,578.9
2022-10-14T03:40:39.831Z,578.9
2022-10-14T03:41:41.806Z,578.8
2022-10-14T03:42:44.038Z,578.9
2022-10-14T03:43:46.552Z,579
2022-10-14T03:44:49.050Z,579
2022-10-14T03:45:51.258Z,578.9
2022-10-14T03:46:53.465Z,579.1
2022-10-14T03:47:55.662Z,579.4
2022-10-14T03:48:57.893Z,579.4
2022-10-14T03:50:00.398Z,579.6
2022-10-14T03:51:02.893Z,579.4
2022-10-14T03:52:05.088Z,579.4
2022-10-14T03:53:07.012Z,579.3
2022-10-14T03:54:09.482Z,579.8
2022-10-14T03:55:12.032Z,579.7
2022-10-14T03:56:14.503Z,579.9
2022-10-14T03:57:16.973Z,579.8
2022-10-14T03:58:19.443Z,579.8
2022-10-14T03:59:21.911Z,579.3
2022-10-14T04:00:24.127Z,579.5
2022-10-14T04:01:26.382Z,580
2022-10-14T04:02:28.860Z,579.6
2022-10-14T04:03:31.346Z,580
2022-10-14T04:04:33.832Z,580.2
2022-10-14T04:05:36.064Z,580.3
2022-10-14T04:06:38.305Z,579.9
2022-10-14T04:07:40.484Z,580.1
2022-10-14T04:08:42.700Z,580.2
2022-10-14T04:09:45.180Z,580.1
2022-10-14T04:10:47.729Z,580.8
2022-10-14T04:11:49.919Z,580.5
2022-10-14T04:12:52.386Z,580.2
2022-10-14T04:13:54.869Z,580.5
2022-10-14T04:14:57.335Z,580.3
2022-10-14T04:15:59.803Z,580.1
2022-10-14T04:17:01.714Z,580.3
2022-10-14T04:18:03.893Z,580.9
2022-10-14T04:19:06.087Z,580.6
2022-10-14T04:20:08.559Z,581
2022-10-14T04:21:10.763Z,580.9
2022-10-14T04:22:12.995Z,580.9
2022-10-14T04:23:15.470Z,580.8
2022-10-14T04:24:17.967Z,580.8
2022-10-14T04:25:20.157Z,581
2022-10-14T04:26:22.715Z,580.9
2022-10-14T04:27:24.628Z,581.2
2022-10-14T04:28:26.872Z,581.3
2022-10-14T04:29:29.375Z,581.4
2022-10-14T04:30:31.850Z,581.5
2022-10-14T04:31:34.057Z,581.8
2022-10-14T04:32:36.522Z,581.6
2022-10-14T04:33:39.008Z,581.4
2022-10-14T04:34:41.248Z,581.1
2022-10-14T04:35:43.725Z,581.4
2022-10-14T04:36:45.907Z,581.6
2022-10-14T04:37:48.137Z,581.5
2022-10-14T04:38:50.039Z,581.6
2022-10-14T04:39:52.241Z,581.7
2022-10-14T04:40:54.150Z,582.1
2022-10-14T04:41:56.707Z,582
2022-10-14T04:42:59.168Z,582.3
2022-10-14T04:44:01.652Z,582.7
2022-10-14T04:45:04.114Z,582.8
2022-10-14T04:46:06.319Z,582.8
2022-10-14T04:47:08.239Z,582.9
2022-10-14T04:48:10.712Z,583
2022-10-14T04:49:12.618Z,583.3
2022-10-14T04:50:14.824Z,583.4
2022-10-14T04:51:17.292Z,583.2
2022-10-14T04:52:20.952Z,583.4
2022-10-14T04:53:24.510Z,583.9
2022-10-14T04:54:26.709Z,583.7
2022-10-14T04:55:28.907Z,583.9
2022-10-14T04:56:31.112Z,584
2022-10-14T04:57:33.657Z,584
2022-10-14T04:58:36.122Z,584.1
2022-10-14T04:59:38.334Z,584.2
2022-10-14T05:00:40.266Z,584
2022-10-14T05:01:42.899Z,583.8
2022-10-14T05:02:45.113Z,584.2
2022-10-14T05:03:47.053Z,584.1
2022-10-14T05:04:49.257Z,584.3
2022-10-14T05:05:51.721Z,584.5
2022-10-14T05:06:54.199Z,584.2
2022-10-14T05:07:56.680Z,584.5
2022-10-14T05:08:59.172Z,584.7
2022-10-14T05:10:01.094Z,584.6
2022-10-14T05:11:03.312Z,584.7
2022-10-14T05:12:05.786Z,584.7
2022-10-14T05:13:08.064Z,584.6
2022-10-14T05:14:10.530Z,585
2022-10-14T05:15:12.771Z,585.1
2022-10-14T05:16:15.252Z,584.9
2022-10-14T05:17:17.731Z,584.7
2022-10-14T05:18:19.962Z,584.8
2022-10-14T05:19:22.529Z,584.5
2022-10-14T05:20:25.036Z,584.5
2022-10-14T05:21:26.678Z,584.5
2022-10-14T05:22:29.165Z,584.6
2022-10-14T05:23:31.357Z,584.9
2022-10-14T05:24:33.280Z,584.8
2022-10-14T05:25:35.751Z,584.9
2022-10-14T05:26:37.954Z,585.1
2022-10-14T05:27:40.431Z,585.3
2022-10-14T05:28:43.275Z,585.3
2022-10-14T05:29:45.773Z,585.1
2022-10-14T05:30:48.242Z,585.2
2022-10-14T05:31:50.450Z,585.2
2022-10-14T05:32:52.918Z,585.3
2022-10-14T05:33:55.394Z,585
2022-10-14T05:34:57.361Z,585.6
2022-10-14T05:36:01.304Z,585.5
2022-10-14T05:37:03.775Z,585.7
2022-10-14T05:38:06.534Z,585.4
2022-10-14T05:39:09.008Z,585.6
2022-10-14T05:40:11.561Z,585.7
2022-10-14T05:41:14.035Z,585.2
2022-10-14T05:42:16.229Z,585.5
2022-10-14T05:43:18.423Z,585.4
2022-10-14T05:44:20.961Z,585.4
2022-10-14T05:45:23.172Z,585.6
2022-10-14T05:46:25.353Z,585.5
2022-10-14T05:47:27.832Z,585.9
2022-10-14T05:48:30.315Z,585.9
2022-10-14T05:49:32.235Z,585.9
2022-10-14T05:50:34.612Z,585.5
2022-10-14T05:51:36.934Z,585.6
2022-10-14T05:52:39.400Z,586.1
2022-10-14T05:53:41.600Z,585.8
2022-10-14T05:54:43.244Z,585.5
2022-10-14T05:55:45.471Z,586
2022-10-14T05:56:47.092Z,586
2022-10-14T05:57:49.276Z,586.1
2022-10-14T05:58:51.595Z,586.3
2022-10-14T05:59:54.164Z,586.5
2022-10-14T06:00:56.372Z,586.5
2022-10-14T06:01:58.610Z,586.5
2022-10-14T06:03:01.131Z,586.2
2022-10-14T06:04:03.373Z,586.2
2022-10-14T06:05:05.852Z,586.2
2022-10-14T06:06:08.064Z,585.7
2022-10-14T06:07:10.556Z,586.1
2022-10-14T06:08:12.492Z,586.2
2022-10-14T06:09:14.420Z,586.1
2022-10-14T06:10:16.947Z,586.3
2022-10-14T06:11:19.437Z,586
2022-10-14T06:12:23.860Z,586
2022-10-14T06:13:26.621Z,586.3
2022-10-14T06:14:28.828Z,586.2
2022-10-14T06:15:31.147Z,586.1
2022-10-14T06:16:33.090Z,586.3
2022-10-14T06:17:35.303Z,586.3
2022-10-14T06:18:37.787Z,586.5
2022-10-14T06:19:40.268Z,586.5
2022-10-14T06:20:42.745Z,586.5
2022-10-14T06:21:45.254Z,586.6
2022-10-14T06:22:47.721Z,586.7
2022-10-14T06:23:49.926Z,586.8
2022-10-14T06:24:52.151Z,587.1
2022-10-14T06:25:54.069Z,587.3
2022-10-14T06:26:56.554Z,586.9
2022-10-14T06:27:59.039Z,587.8
2022-10-14T06:29:01.297Z,587.4
2022-10-14T06:30:03.269Z,587.6
2022-10-14T06:31:05.846Z,587.2
2022-10-14T06:32:08.322Z,587.3
2022-10-14T06:33:10.803Z,586.8
2022-10-14T06:34:13.282Z,586.9
2022-10-14T06:35:15.495Z,586.9
2022-10-14T06:36:17.981Z,586.7
2022-10-14T06:37:20.450Z,586.6
2022-10-14T06:38:22.077Z,586.6
2022-10-14T06:39:23.992Z,586.5
2022-10-14T06:40:26.690Z,586.2
2022-10-14T06:41:29.174Z,586.1
2022-10-14T06:42:31.667Z,586.2
2022-10-14T06:43:34.148Z,586
2022-10-14T06:44:36.639Z,586.3
2022-10-14T06:45:38.854Z,585.8
2022-10-14T06:46:41.401Z,585.9
2022-10-14T06:47:43.326Z,586.3
2022-10-14T06:49:50.545Z,586
2022-10-14T06:50:52.748Z,586.1
2022-10-14T06:51:55.224Z,586.3
2022-10-14T06:52:57.694Z,586.4
2022-10-14T06:53:59.903Z,586.5
2022-10-14T06:55:02.377Z,586.7
2022-10-14T06:56:04.873Z,586.9
2022-10-14T06:57:06.806Z,586.9
2022-10-14T06:58:09.050Z,587.1
2022-10-14T06:59:11.246Z,586.7
2022-10-14T07:00:13.748Z,586.9
2022-10-14T07:01:16.550Z,586.6
2022-10-14T07:02:19.397Z,586.4
2022-10-14T07:03:21.783Z,587.5
2022-10-14T07:04:23.988Z,586.9
2022-10-14T07:05:26.216Z,587.3
2022-10-14T07:06:28.189Z,587.2
2022-10-14T07:07:30.682Z,587.3
2022-10-14T07:08:33.164Z,587.2
2022-10-14T07:09:35.681Z,587.3
2022-10-14T07:10:37.903Z,587.9
2022-10-14T07:11:39.853Z,588.1
2022-10-14T07:12:42.110Z,588.1
2022-10-14T07:13:44.611Z,588.8
2022-10-14T07:14:47.098Z,589.1
2022-10-14T07:15:49.594Z,589.2
2022-10-14T07:16:51.506Z,589
2022-10-14T07:17:54.075Z,589
2022-10-14T07:18:56.551Z,588.6
2022-10-14T07:19:59.048Z,589
2022-10-14T07:21:01.302Z,588.8
2022-10-14T07:22:03.543Z,588.6
2022-10-14T07:23:05.479Z,587.9
2022-10-14T07:24:07.950Z,588.4
2022-10-14T07:25:10.142Z,588.7
2022-10-14T07:26:12.093Z,588.4
2022-10-14T07:27:14.298Z,588.7
2022-10-14T07:28:16.607Z,588.4
2022-10-14T07:29:19.138Z,588.2
2022-10-14T07:30:21.332Z,588.1
2022-10-14T07:31:23.551Z,589
2022-10-14T07:32:25.470Z,588.6
2022-10-14T07:33:28.440Z,588.2
2022-10-14T07:34:30.650Z,588
2022-10-14T07:35:33.140Z,588
2022-10-14T07:36:35.612Z,587.9
2022-10-14T07:37:38.110Z,587.7
2022-10-14T07:38:40.591Z,587.6
2022-10-14T07:39:42.782Z,587.8
2022-10-14T07:40:44.443Z,587.2
2022-10-14T07:41:46.988Z,587.4
2022-10-14T07:42:48.915Z,587.4
2022-10-14T07:43:50.834Z,587.5
2022-10-14T07:44:53.344Z,587.6
2022-10-14T07:45:55.247Z,587.7
2022-10-14T07:46:57.748Z,587.5
2022-10-14T07:47:59.676Z,587.3
2022-10-14T07:49:01.947Z,587.1
2022-10-14T07:50:04.445Z,587.4
2022-10-14T07:51:06.952Z,587.2
2022-10-14T07:52:09.192Z,587.6
2022-10-14T07:53:11.679Z,587.3
2022-10-14T07:54:13.584Z,587.4
2022-10-14T07:55:16.078Z,587.8
2022-10-14T07:56:18.559Z,587.5
2022-10-14T07:57:22.773Z,587.5
2022-10-14T07:58:24.883Z,587.7
2022-10-14T07:59:27.654Z,587.7
2022-10-14T08:00:30.171Z,587.6
2022-10-14T08:01:33.003Z,587.5
2022-10-14T08:02:35.654Z,587
2022-10-14T08:03:37.864Z,587.6
2022-10-14T08:04:40.150Z,587.2
2022-10-14T08:05:42.628Z,587.2
2022-10-14T08:06:45.092Z,587.5
2022-10-14T08:07:47.014Z,587.6
2022-10-14T08:08:49.263Z,587.5
2022-10-14T08:09:51.773Z,587.7
2022-10-14T08:10:53.682Z,588.2
2022-10-14T08:11:55.888Z,588.2
2022-10-14T08:12:58.093Z,588.2
2022-10-14T08:14:00.292Z,588.3
2022-10-14T08:15:02.531Z,588.3
2022-10-14T08:16:05.035Z,588.1
2022-10-14T08:17:06.963Z,588.1
2022-10-14T08:18:09.289Z,588.1
2022-10-14T08:20:17.036Z,588.4
2022-10-14T08:21:19.275Z,588.3
2022-10-14T08:22:23.668Z,588.2
2022-10-14T08:23:26.166Z,588.4
2022-10-14T08:24:28.635Z,588.5
2022-10-14T08:25:31.101Z,588.7
2022-10-14T08:26:33.592Z,588.9
2022-10-14T08:27:35.811Z,588.7
2022-10-14T08:28:38.273Z,588.4
2022-10-14T08:29:40.210Z,588.5
2022-10-14T08:30:42.420Z,588.6
2022-10-14T08:31:44.637Z,588.4
2022-10-14T08:32:46.841Z,588
2022-10-14T08:33:49.343Z,588.2
2022-10-14T08:34:51.559Z,588.1
2022-10-14T08:35:56.531Z,587.7
2022-10-14T08:36:59.038Z,588
2022-10-14T08:38:01.506Z,588
2022-10-14T08:39:04.061Z,588.2
2022-10-14T08:40:06.284Z,588.2
2022-10-14T08:41:08.759Z,587.9
2022-10-14T08:42:11.238Z,588.1
2022-10-14T08:43:13.723Z,587.5
2022-10-14T08:44:16.217Z,588.3
2022-10-14T08:45:18.153Z,588
2022-10-14T08:46:20.385Z,588.3
2022-10-14T08:47:22.624Z,587.8
2022-10-14T08:48:25.093Z,588.5
2022-10-14T08:49:27.327Z,588.3
2022-10-14T08:50:29.806Z,588.3
2022-10-14T08:51:32.376Z,588.6
2022-10-14T08:53:39.287Z,588.5
2022-10-14T08:54:41.476Z,588.7
2022-10-14T08:55:42.834Z,589.5
2022-10-14T08:56:45.303Z,589.4
2022-10-14T08:57:47.775Z,589.7
2022-10-14T08:58:50.242Z,588.9
2022-10-14T08:59:52.721Z,589.6
2022-10-14T09:00:54.914Z,589.2
2022-10-14T09:01:56.837Z,589.3
2022-10-14T09:02:59.289Z,589.2
2022-10-14T09:04:01.470Z,588.9
2022-10-14T09:05:03.692Z,589.1
2022-10-14T09:06:06.115Z,589.1
2022-10-14T09:07:08.726Z,589.2
2022-10-14T09:08:10.932Z,588.5
2022-10-14T09:09:12.862Z,588.7
2022-10-14T09:10:14.787Z,588.4
2022-10-14T09:11:17.270Z,588.7
2022-10-14T09:12:20.957Z,588.3
2022-10-14T09:13:23.323Z,588.4
2022-10-14T09:14:25.523Z,588.7
2022-10-14T09:15:27.460Z,588.1
2022-10-14T09:16:29.671Z,588.1
2022-10-14T09:18:37.201Z,588.8
2022-10-14T09:19:39.666Z,589.1
2022-10-14T09:20:41.604Z,588.8
2022-10-14T09:22:48.851Z,589.2
2022-10-14T09:23:50.789Z,589.6
2022-10-14T09:24:52.694Z,589.4
2022-10-14T09:25:55.162Z,589.9
2022-10-14T09:26:58.742Z,589.8
2022-10-14T09:28:00.931Z,589.8
2022-10-14T09:29:03.505Z,589.8
2022-10-14T09:30:05.785Z,589.7
2022-10-14T09:31:07.981Z,589.8
2022-10-14T09:32:09.883Z,589.9
2022-10-14T09:33:12.365Z,589.8
2022-10-14T09:34:14.592Z,589.8
2022-10-14T09:35:16.809Z,589.7
2022-10-14T09:36:19.287Z,590.2
2022-10-14T09:37:23.553Z,589.9
2022-10-14T09:38:26.234Z,590
2022-10-14T09:39:28.152Z,590.1
2022-10-14T09:40:30.093Z,590.6
2022-10-14T09:41:31.494Z,590.6
2022-10-14T09:42:33.414Z,590.8
2022-10-14T09:43:36.233Z,590.9
2022-10-14T09:44:38.743Z,591
2022-10-14T09:45:41.031Z,590.9
2022-10-14T09:46:43.599Z,590.7
2022-10-14T09:47:45.826Z,591
2022-10-14T09:48:48.025Z,591
2022-10-14T09:49:50.536Z,591.4
2022-10-14T09:50:53.026Z,591.3
2022-10-14T09:51:55.236Z,591.6
2022-10-14T09:52:57.473Z,591.5
2022-10-14T09:54:00.696Z,591.3
2022-10-14T09:55:02.657Z,591.4
2022-10-14T09:56:04.718Z,591.2
2022-10-14T09:57:06.997Z,591.4
2022-10-14T09:58:09.481Z,591.1
2022-10-14T09:59:11.952Z,591.6
2022-10-14T10:00:14.150Z,591.7
2022-10-14T10:01:16.378Z,591.7
2022-10-14T10:02:18.293Z,591.6
2022-10-14T10:03:20.496Z,591.6
2022-10-14T10:04:22.700Z,591.7
2022-10-14T10:05:24.897Z,591.8
2022-10-14T10:06:26.584Z,591.7
2022-10-14T10:07:28.786Z,591.6
2022-10-14T10:08:31.267Z,591.7
2022-10-14T10:09:33.839Z,591.5
2022-10-14T10:10:36.327Z,591.4
2022-10-14T10:11:38.304Z,591.9
2022-10-14T10:12:40.517Z,591.6
2022-10-14T10:13:43.082Z,591.7
2022-10-14T10:14:45.297Z,591.9
2022-10-14T10:15:47.776Z,591.8
2022-10-14T10:17:56.338Z,591.9
2022-10-14T10:18:58.535Z,592.4
2022-10-14T10:20:00.734Z,591.9
2022-10-14T10:21:03.245Z,592.1
2022-10-14T10:22:05.727Z,592.6
2022-10-14T10:23:08.190Z,592.7
2022-10-14T10:24:10.371Z,592.6
2022-10-14T10:25:12.936Z,593.1
2022-10-14T10:26:15.406Z,592.4
2022-10-14T10:27:17.881Z,592.7
2022-10-14T10:28:20.420Z,592.7
2022-10-14T10:29:22.691Z,592.9
2022-10-14T10:30:24.895Z,592.9
2022-10-14T10:31:28.179Z,592.9
2022-10-14T10:32:30.450Z,593.3
2022-10-14T10:33:32.927Z,593.4
2022-10-14T10:34:35.422Z,593.5
2022-10-14T10:35:37.901Z,593.7
2022-10-14T10:36:40.125Z,594.1
2022-10-14T10:37:42.027Z,594.2
2022-10-14T10:38:44.236Z,594.5
2022-10-14T10:39:46.733Z,594
2022-10-14T10:40:49.433Z,594.2
2022-10-14T10:41:51.896Z,594.4
2022-10-14T10:42:53.631Z,594.5
2022-10-14T10:43:56.108Z,594.6
2022-10-14T10:44:58.636Z,594.4
2022-10-14T10:46:00.665Z,594.5
2022-10-14T10:47:02.930Z,594.6
2022-10-14T10:48:05.185Z,594.7
2022-10-14T10:49:07.718Z,594.5
2022-10-14T10:50:09.987Z,595.1
2022-10-14T10:51:11.955Z,595.2
2022-10-14T10:53:18.933Z,595.3
2022-10-14T10:54:21.465Z,595.4
2022-10-14T10:55:23.490Z,595.4
2022-10-14T10:56:26.174Z,595.5
2022-10-14T10:57:28.715Z,595.5
2022-10-14T10:58:30.964Z,595.3
2022-10-14T10:59:32.950Z,595.4
2022-10-14T11:00:35.199Z,595.5
2022-10-14T11:01:38.187Z,595.5
2022-10-14T11:02:40.789Z,595.4
2022-10-14T11:03:42.773Z,595.4
2022-10-14T11:04:44.750Z,595.6
2022-10-14T11:05:46.987Z,595.4
2022-10-14T11:06:49.515Z,595.4
2022-10-14T11:07:51.842Z,595.8
2022-10-14T11:08:54.160Z,595.8
2022-10-14T11:09:56.733Z,596.2
2022-10-14T11:10:58.701Z,596.4
2022-10-14T11:12:01.358Z,596.7
2022-10-14T11:13:03.938Z,596.6
2022-10-14T11:14:05.915Z,596.8
2022-10-14T11:15:08.370Z,596.8
2022-10-14T11:16:10.684Z,596.8
2022-10-14T11:17:13.263Z,597.1
2022-10-14T11:18:15.404Z,597.1
2022-10-14T11:19:17.640Z,597.5
2022-10-14T11:20:20.169Z,597.6
2022-10-14T11:21:22.745Z,597.5
2022-10-14T11:22:26.226Z,597.7
2022-10-14T11:23:28.774Z,597.7
2022-10-14T11:24:31.317Z,597.7
2022-10-14T11:25:33.585Z,597.3
2022-10-14T11:26:37.292Z,598
2022-10-14T11:27:39.964Z,597.9
2022-10-14T11:28:42.601Z,597.9
2022-10-14T11:29:45.122Z,598.3
2022-10-14T11:30:47.602Z,598.5
2022-10-14T11:31:50.105Z,598.6
2022-10-14T11:32:52.305Z,599
2022-10-14T11:33:54.772Z,599.3
2022-10-14T11:34:57.254Z,599.6
2022-10-14T11:35:59.179Z,599.5
2022-10-14T11:37:01.375Z,600.2
2022-10-14T11:38:03.569Z,600.2
2022-10-14T11:39:06.064Z,600.5
2022-10-14T11:40:08.261Z,600.5
2022-10-14T11:41:10.451Z,600.4
2022-10-14T11:42:12.918Z,599.9
2022-10-14T11:43:15.608Z,600
2022-10-14T11:44:18.073Z,600.4
2022-10-14T11:46:25.277Z,600.5
2022-10-14T11:47:27.724Z,600.7
2022-10-14T11:48:29.651Z,601.1
2022-10-14T11:49:31.589Z,600.9
2022-10-14T11:50:33.779Z,601.1
2022-10-14T11:51:37.703Z,600.8
2022-10-14T11:52:40.190Z,601
2022-10-14T11:53:42.411Z,600.9
2022-10-14T11:54:44.693Z,601.3
2022-10-14T11:55:46.894Z,601.1
2022-10-14T11:56:49.097Z,601.4
2022-10-14T11:57:51.292Z,601.8
2022-10-14T11:58:53.870Z,601.7
2022-10-14T11:59:56.076Z,601.7
2022-10-14T12:00:58.014Z,601.8
2022-10-14T12:02:00.217Z,601.7
2022-10-14T12:03:03.200Z,602.4
2022-10-14T12:04:05.430Z,602.4
2022-10-14T12:05:07.654Z,602.7
2022-10-14T12:06:09.855Z,602.1
2022-10-14T12:07:11.777Z,602.5
2022-10-14T12:08:14.263Z,602.2
2022-10-14T12:09:16.688Z,602.3
2022-10-14T12:10:18.912Z,602.4
2022-10-14T12:11:21.116Z,602.2
2022-10-14T12:12:25.569Z,602.3
2022-10-14T12:13:28.096Z,602.3
2022-10-14T12:14:30.661Z,602.2
2022-10-14T12:15:32.785Z,601.9
2022-10-14T12:16:35.273Z,602.3
2022-10-14T12:17:37.498Z,602.2
2022-10-14T12:18:39.194Z,602.4
2022-10-14T12:19:41.707Z,602.5
2022-10-14T12:20:44.190Z,602.8
2022-10-14T12:22:51.100Z,603
2022-10-14T12:23:53.827Z,603
2022-10-14T12:24:56.319Z,603.2
2022-10-14T12:25:58.813Z,603.4
2022-10-14T12:27:00.742Z,603.3
2022-10-14T12:28:02.939Z,603.4
2022-10-14T12:29:05.939Z,603.4
2022-10-14T12:30:08.570Z,603.5
2022-10-14T12:31:11.041Z,603.4
2022-10-14T12:32:13.247Z,603.7
2022-10-14T12:34:20.733Z,603.8
2022-10-14T12:35:23.199Z,604.1
2022-10-14T12:36:25.953Z,604
2022-10-14T12:38:33.453Z,604.5
2022-10-14T12:39:35.937Z,604.7
2022-10-14T12:40:38.153Z,604.8
2022-10-14T12:41:40.363Z,604.6
2022-10-14T12:42:42.577Z,605.1
2022-10-14T12:44:51.505Z,604.9
2022-10-14T12:45:53.797Z,604.7
2022-10-14T12:46:56.281Z,604.9
2022-10-14T12:47:58.779Z,605
2022-10-14T12:49:01.261Z,604.9
2022-10-14T12:50:03.184Z,604.6
2022-10-14T12:51:05.116Z,604.9
2022-10-14T12:52:07.314Z,604.8
2022-10-14T12:53:09.796Z,604.9
2022-10-14T12:54:12.280Z,604.8
2022-10-14T12:55:14.495Z,604.7
2022-10-14T12:56:16.996Z,604.6
2022-10-14T12:57:20.471Z,604.8
2022-10-14T12:58:22.909Z,604.3
2022-10-14T12:59:25.097Z,605
2022-10-14T13:00:27.000Z,604.8
2022-10-14T13:02:34.786Z,605
2022-10-14T13:03:37.245Z,604.9
2022-10-14T13:04:39.751Z,605.1
2022-10-14T13:05:42.264Z,605.2
2022-10-14T13:06:45.109Z,605.5
2022-10-14T13:07:50.722Z,605.4
2022-10-14T13:08:53.265Z,605.7
2022-10-14T13:09:55.216Z,605.5
2022-10-14T13:10:57.429Z,605.3
2022-10-14T13:11:59.911Z,605.4
2022-10-14T13:13:02.768Z,605.7
2022-10-14T13:14:05.266Z,605.7
2022-10-14T13:15:06.909Z,605.8
2022-10-14T13:16:09.389Z,605.7
2022-10-14T13:18:16.941Z,605.7
2022-10-14T13:19:18.860Z,606
2022-10-14T13:20:21.071Z,605.9
2022-10-14T13:21:22.976Z,606
2022-10-14T13:23:31.426Z,606.2
2022-10-14T13:24:33.612Z,605.7
2022-10-14T13:25:36.295Z,606.1
2022-10-14T13:26:38.499Z,606.1
2022-10-14T13:27:41.013Z,606.3
2022-10-14T13:28:44.377Z,606.1
2022-10-14T13:29:46.554Z,605.9
2022-10-14T13:30:48.192Z,606
2022-10-14T13:31:50.666Z,606.3
2022-10-14T13:32:53.146Z,605.9
2022-10-14T13:33:55.692Z,606.3
2022-10-14T13:34:58.361Z,606
2022-10-14T13:36:00.934Z,606
2022-10-14T13:37:03.123Z,606.1
2022-10-14T13:38:05.319Z,605.8
2022-10-14T13:39:07.507Z,605.9
2022-10-14T13:40:10.005Z,606.2
2022-10-14T13:41:12.261Z,605.9
2022-10-14T13:42:14.166Z,605.8
2022-10-14T13:43:16.666Z,605.6
2022-10-14T13:44:18.674Z,605.3
2022-10-14T13:45:20.873Z,605.3
2022-10-14T13:46:23.092Z,605.3